Weather reports worldwide

Advertisment
East malling, United Kingdom (99008): temperature & dewpoint: 18.01.2020 01:00:00 - 24.01.2020 01:00:00 (GMT)East malling, United Kingdom (99008): temperature -20cm: 18.01.2020 01:00:00 - 24.01.2020 01:00:00 (GMT)East malling, United Kingdom (99008): wind speed: 18.01.2020 01:00:00 - 24.01.2020 01:00:00 (GMT)East malling, United Kingdom (99008): wind direction: 18.01.2020 01:00:00 - 24.01.2020 01:00:00 (GMT)East malling, United Kingdom (99008): reduced air pressure: 18.01.2020 01:00:00 - 24.01.2020 01:00:00 (GMT)East malling, United Kingdom (99008): sunshine duration: 18.01.2020 01:00:00 - 24.01.2020 01:00:00 (GMT)East malling, United Kingdom (99008): precipitation: 18.01.2020 01:00:00 - 24.01.2020 01:00:00 (GMT)
Date & Time tt [°C] td [°C] tt -20cm [°C] ff [km/h] ff [kn] dd ppp [hPa] sd [min] rr [mm]
24.01.2020 01:00:00 5,5 5,2 - 4 2 SW 1025,7 0 0,0
24.01.2020 00:00:00 5,6 5,3 - 2 1 WNW 1026,4 - 0,0
23.01.2020 23:00:00 5,6 5,3 - 2 1 NNW 1026,6 0 0,0
23.01.2020 22:00:00 5,7 5,2 - 2 1 NNW 1026,9 0 0,0
23.01.2020 21:00:00 5,9 5,3 - 0 0 N 1026,9 0 0,2
23.01.2020 20:00:00 6,1 5,4 - 4 2 N 1027,2 0 0,0
23.01.2020 19:00:00 6,5 5,6 - 5 3 NNE 1027,8 0 0,0
23.01.2020 18:00:00 6,7 6,1 - 8 4 N 1028,0 0 0,0
23.01.2020 17:00:00 6,8 5,7 - 5 3 ENE 1028,3 0 0,0
23.01.2020 16:00:00 6,9 5,6 - 4 2 NNE 1028,6 0 0,0
23.01.2020 15:00:00 7,0 5,7 - 8 4 NNE 1029,3 0 0,0
23.01.2020 14:00:00 7,2 5,8 - 5 3 N 1030,0 0 0,0
23.01.2020 13:00:00 7,3 5,6 - 4 2 NE 1030,9 0 0,0
23.01.2020 12:00:00 7,2 5,6 - 4 2 ESE 1032,0 0 0,0
23.01.2020 11:00:00 6,9 6,0 - 2 1 E 1032,8 0 0,0
23.01.2020 10:00:00 6,4 6,1 - 4 2 E 1033,2 0 0,0
23.01.2020 09:00:00 5,7 5,6 5,0 0 0 N 1033,3 6 0,0
23.01.2020 08:00:00 5,7 5,6 - 2 1 NE 1033,4 0 0,0
23.01.2020 07:00:00 5,5 5,4 - 4 2 NNW 1033,6 0 0,0
23.01.2020 06:00:00 5,7 5,5 - 2 1 NW 1033,4 0 0,0
23.01.2020 05:00:00 5,9 5,8 - 4 2 ENE 1033,8 0 0,0
23.01.2020 04:00:00 5,6 5,5 - 2 1 NW 1034,3 0 0,0
23.01.2020 03:00:00 5,4 5,3 - 2 1 N 1035,0 0 0,0
23.01.2020 02:00:00 5,5 5,3 - 0 0 N 1035,4 0 0,0
23.01.2020 01:00:00 5,6 5,4 - 2 1 NW 1035,8 0 0,0
23.01.2020 00:00:00 5,6 5,4 - 4 2 NW 1036,2 - 0,0
22.01.2020 23:00:00 5,8 5,7 - 2 1 NW 1036,6 0 0,0
22.01.2020 22:00:00 5,6 5,4 - 2 1 W 1036,7 0 0,0
22.01.2020 21:00:00 5,7 5,5 - 2 1 W 1036,8 0 0,0
22.01.2020 20:00:00 5,7 5,5 - 0 0 N 1037,0 0 0,0
22.01.2020 19:00:00 5,9 5,7 - 4 2 ENE 1036,9 0 0,0
22.01.2020 18:00:00 5,9 5,7 - 4 2 NNE 1036,9 0 0,0
22.01.2020 17:00:00 5,9 5,6 - 5 3 NNE 1036,9 0 0,0
22.01.2020 16:00:00 - - - - - - - 0 0,0
22.01.2020 15:00:00 - - - - - - - 0 0,0
22.01.2020 14:00:00 - - - - - - - 0 0,0
22.01.2020 13:00:00 6,1 6,1 - 4 2 N 1037,4 0 0,2
22.01.2020 12:00:00 5,6 5,6 - 4 2 NNE 1037,8 0 0,0
22.01.2020 11:00:00 5,1 5,1 - 5 3 NNE 1038,1 0 0,0
22.01.2020 10:00:00 4,6 4,6 - 4 2 NE 1038,0 0 0,0
22.01.2020 09:00:00 3,9 3,9 3,7 4 2 N 1037,9 6 0,0
22.01.2020 08:00:00 3,5 3,5 - 2 1 WSW 1037,7 0 0,0
22.01.2020 07:00:00 3,0 3,0 - 2 1 N 1037,6 0 0,0
22.01.2020 06:00:00 3,0 3,0 - 4 2 NNE 1037,6 0 0,0
22.01.2020 05:00:00 2,7 2,7 - 0 0 N 1037,8 0 0,0
22.01.2020 04:00:00 1,5 1,5 - 0 0 N 1038,0 0 0,0
22.01.2020 03:00:00 1,3 1,3 - 0 0 N 1038,3 0 0,0
22.01.2020 02:00:00 1,2 1,2 - 2 1 S 1038,6 0 0,0
22.01.2020 01:00:00 1,2 1,2 - 2 1 S 1039,1 0 0,0
22.01.2020 00:00:00 0,3 0,3 - 2 1 NNE 1040,0 - 0,0
21.01.2020 23:00:00 0,1 0,1 - 2 1 SW 1040,0 0 0,0
21.01.2020 22:00:00 -1,3 -1,3 - 0 0 N 1039,7 0 0,0
21.01.2020 21:00:00 -0,6 -0,6 - 2 1 SSW 1039,9 0 0,0
21.01.2020 20:00:00 0,2 0,2 - 2 1 SE 1040,0 0 0,0
21.01.2020 19:00:00 0,3 0,1 - 2 1 SSW 1040,1 0 0,0
21.01.2020 18:00:00 1,7 1,1 - 2 1 W 1040,4 0 0,0
21.01.2020 17:00:00 3,4 1,4 - 8 4 SSW 1040,3 30 0,0
21.01.2020 16:00:00 6,3 2,1 - 5 3 SSW 1040,4 60 0,0
21.01.2020 15:00:00 7,7 2,8 - 5 3 W 1040,6 60 0,0
21.01.2020 14:00:00 7,3 2,9 - 8 4 SSW 1040,9 60 0,0
21.01.2020 13:00:00 7,1 3,1 - 5 3 WNW 1041,7 60 0,0
21.01.2020 12:00:00 5,7 3,4 - 2 1 NNW 1042,4 60 0,0
21.01.2020 11:00:00 3,1 2,8 - 0 0 N 1043,1 60 0,2
21.01.2020 10:00:00 1,1 1,1 - 2 1 N 1043,2 60 0,0
21.01.2020 09:00:00 -1,8 -1,8 3,5 0 0 N - 54 0,0
21.01.2020 08:00:00 -3,3 -3,3 - 2 1 SSE 1042,6 0 0,0
21.01.2020 07:00:00 -3,3 -3,3 - 2 1 SW 1042,8 0 0,0
21.01.2020 06:00:00 -3,2 -3,2 - 2 1 W 1043,1 0 0,0
21.01.2020 05:00:00 -3,1 -3,1 - 2 1 SE 1042,9 0 0,0
21.01.2020 04:00:00 -2,5 -2,5 - 4 2 S 1043,2 0 0,0
21.01.2020 03:00:00 -2,3 -2,3 - 4 2 SE 1043,5 0 0,0
21.01.2020 02:00:00 -2,7 -2,7 - 5 3 N 1044,1 0 0,0
21.01.2020 01:00:00 -2,3 -2,3 - 2 1 WSW 1044,6 0 0,0
21.01.2020 00:00:00 -1,8 -1,8 - 2 1 SE 1045,2 - 0,0
20.01.2020 23:00:00 -0,9 -0,9 - 2 1 WNW 1045,3 0 0,0
20.01.2020 22:00:00 -0,9 -0,9 - 2 1 N 1045,5 0 0,0
20.01.2020 21:00:00 -0,4 -0,5 - 4 2 S 1045,5 0 0,0
20.01.2020 20:00:00 -0,1 -0,7 - 4 2 SSE 1046,2 0 0,0
20.01.2020 19:00:00 0,5 -0,3 - 8 4 S 1046,0 0 0,0
20.01.2020 18:00:00 0,6 -1,4 - 4 2 SSW 1046,3 0 0,0
20.01.2020 17:00:00 2,8 -0,6 - 5 3 SW 1046,5 24 0,0
20.01.2020 16:00:00 6,4 -0,2 - 2 1 W 1046,8 42 0,0
20.01.2020 15:00:00 6,0 -0,2 - 5 3 SW 1047,1 0 0,0
20.01.2020 14:00:00 6,7 -1,0 - 5 3 SW 1047,5 0 0,0
20.01.2020 13:00:00 5,9 0,6 - 2 1 SW 1048,2 0 0,0
20.01.2020 12:00:00 5,6 -0,8 - 8 4 SW 1048,6 30 0,0
20.01.2020 11:00:00 4,9 -0,1 - 8 4 SSW 1049,1 54 0,0
20.01.2020 10:00:00 1,8 1,8 - 4 2 S 1049,2 48 0,0
20.01.2020 09:00:00 -0,3 -0,3 4,2 2 1 SW 1049,1 30 0,0
20.01.2020 08:00:00 -0,4 -0,4 - 0 0 N 1049,1 0 0,0
20.01.2020 07:00:00 -0,5 -0,5 - 2 1 E 1048,9 0 0,0
20.01.2020 06:00:00 -1,4 -1,4 - 2 1 SW 1049,0 0 0,0
20.01.2020 05:00:00 -1,9 -1,9 - 2 1 S 1048,9 0 0,0
20.01.2020 04:00:00 -1,2 -1,2 - 5 3 S 1049,1 0 0,0
20.01.2020 03:00:00 -0,6 -0,6 - 0 0 N 1049,0 0 0,0
20.01.2020 02:00:00 0,5 0,5 - 4 2 N 1048,9 0 0,0
20.01.2020 01:00:00 0,8 0,8 - 4 2 SSW 1049,0 0 0,0
20.01.2020 00:00:00 0,8 0,8 - 4 2 SW 1049,4 - 0,0
19.01.2020 23:00:00 0,0 0,0 - 2 1 SW 1049,6 0 0,0
19.01.2020 22:00:00 -0,5 -0,9 - 4 2 NW 1049,2 0 0,0
19.01.2020 21:00:00 0,9 0,9 - 4 2 W 1049,0 0 0,0
19.01.2020 20:00:00 0,6 0,0 - 4 2 SW 1048,5 0 0,0
19.01.2020 19:00:00 1,9 1,0 - 4 2 N 1048,1 0 0,0
19.01.2020 18:00:00 3,2 1,3 - 8 4 NE 1047,7 0 0,0
19.01.2020 17:00:00 4,6 1,8 - 8 4 N 1047,0 30 0,0
19.01.2020 16:00:00 6,2 2,3 - 13 7 N 1046,7 60 0,0
19.01.2020 15:00:00 6,9 2,4 - 15 8 N 1045,8 60 0,0
19.01.2020 14:00:00 6,8 2,2 - 13 7 N 1045,2 60 0,0
19.01.2020 13:00:00 6,7 2,0 - 16 9 NNW 1045,2 60 0,0
19.01.2020 12:00:00 6,2 1,8 - 11 6 N 1044,9 60 0,0
19.01.2020 11:00:00 5,2 0,7 - 9 5 N 1044,8 60 0,0
19.01.2020 10:00:00 4,5 0,4 - 2 1 N 1044,4 60 0,0
19.01.2020 09:00:00 1,9 -0,5 4,7 4 2 NW 1043,4 36 0,0
19.01.2020 08:00:00 1,3 -0,9 - 8 4 NNW 1042,5 0 0,0
19.01.2020 07:00:00 1,2 -0,6 - 5 3 N 1041,2 0 0,0
19.01.2020 06:00:00 1,1 -0,6 - 4 2 N 1040,1 0 0,0
19.01.2020 05:00:00 1,0 -0,6 - 4 2 N 1039,4 0 0,0
19.01.2020 04:00:00 1,5 -0,4 - 5 3 N 1038,8 0 0,0
19.01.2020 03:00:00 2,3 0,1 - 8 4 N 1038,3 0 0,0
19.01.2020 02:00:00 3,0 0,7 - 13 7 N 1037,5 0 0,0
19.01.2020 01:00:00 2,9 0,7 - 15 8 N 1036,4 0 0,0
19.01.2020 00:00:00 2,7 0,8 - 9 5 NNW 1035,5 - 0,0
18.01.2020 23:00:00 2,8 0,6 - 9 5 NW 1034,8 0 0,0
18.01.2020 22:00:00 2,6 0,3 - 8 4 NW 1034,1 0 0,0
18.01.2020 21:00:00 2,9 0,3 - 8 4 WNW 1033,5 0 0,0
18.01.2020 20:00:00 3,4 0,5 - 9 5 NW 1033,1 0 0,0
18.01.2020 19:00:00 2,4 -0,1 - 2 1 NW 1032,2 0 0,0
18.01.2020 18:00:00 3,6 0,2 - 8 4 NNW 1031,7 0 0,0
18.01.2020 17:00:00 4,5 0,5 - 8 4 WNW 1030,7 6 0,0
18.01.2020 16:00:00 5,7 0,4 - 11 6 NW 1029,9 42 0,0
18.01.2020 15:00:00 6,8 0,9 - 13 7 NW 1029,2 54 0,0
18.01.2020 14:00:00 7,2 1,4 - 15 8 NW 1028,5 60 0,0
18.01.2020 13:00:00 6,7 1,4 - 13 7 NW 1028,2 60 0,0
18.01.2020 12:00:00 6,5 1,6 - 11 6 NW 1028,0 60 0,0
18.01.2020 11:00:00 5,8 1,5 - 11 6 NW 1027,8 60 0,2
18.01.2020 10:00:00 4,4 1,1 - 9 5 NW 1027,2 60 0,0
18.01.2020 09:00:00 1,2 0,8 6,0 2 1 NE 1026,7 48 0,0
18.01.2020 08:00:00 1,8 1,4 - 9 5 W 1026,0 0 0,0
18.01.2020 07:00:00 0,2 0,1 - 8 4 WSW 1025,2 0 0,0
18.01.2020 06:00:00 0,7 0,2 - 9 5 SW 1024,3 0 0,0
18.01.2020 05:00:00 2,2 0,8 - 4 2 W 1023,5 0 0,0
18.01.2020 04:00:00 3,0 1,4 - 11 6 WNW 1023,1 0 0,0
18.01.2020 03:00:00 3,6 1,6 - 13 7 W 1022,6 0 0,0
18.01.2020 02:00:00 3,4 1,4 - 13 7 W 1021,7 0 0,0
18.01.2020 01:00:00 3,4 1,5 - 15 8 W 1021,1 0 0,0

tt = temperature
td = dewpoint
tt -20cm = temperature -20cm
ff = wind speed
dd = wind direction
ppp = reduced air pressure
sd = sunshine duration
rr = precipitation

Next stations